Time;durP1;ratioP1;P1;durP2;ratioP2;P2;SDS_P1;SDS_P2;PMS_P1;PMS_P2;Temp;Humidity;BMP_temperature;BMP_pressure;BME280_temperature;BME280_humidity;BME280_pressure;Samples;Min_cycle;Max_cycle;Signal;HPM_P1;HPM_P2
2022/05/01 00:05:12;;;;;;;48.00;44.80;;;;;;;12.62;100.00;102511.72;1985476;71;40198;-72
2022/05/01 00:10:57;;;;;;;43.03;40.27;;;;;;;12.74;100.00;102518.04;1846019;76;86264;-73
2022/05/01 00:16:43;;;;;;;45.20;42.30;;;;;;;12.78;100.00;102519.20;1884761;74;86266;-75
2022/05/01 00:22:27;;;;;;;45.37;42.60;;;;;;;12.78;100.00;102515.02;1857231;76;86621;-71
2022/05/01 00:28:13;;;;;;;45.00;42.13;;;;;;;12.74;100.00;102513.85;1931586;71;39627;-72
2022/05/01 00:40:00;;;;;;;47.73;44.67;;;;;;;12.60;100.00;102509.75;1835682;76;86219;-74
2022/05/01 00:45:44;;;;;;;48.97;45.97;;;;;;;12.55;100.00;102491.56;1899858;73;86396;-73
2022/05/01 00:51:31;;;;;;;52.67;49.37;;;;;;;12.38;100.00;102498.28;1865861;76;86615;-72
2022/05/01 00:57:17;;;;;;;53.13;49.90;;;;;;;12.39;100.00;102494.41;1961473;72;39707;-72
2022/05/01 01:03:00;;;;;;;59.07;55.33;;;;;;;12.38;100.00;102491.31;1833733;76;86254;-73
2022/05/01 01:08:45;;;;;;;58.17;54.77;;;;;;;12.40;100.00;102489.12;1870316;75;86167;-73
2022/05/01 01:14:29;;;;;;;61.40;57.80;;;;;;;12.18;100.00;102487.70;1808409;77;86504;-71
2022/05/01 01:20:15;;;;;;;63.80;59.97;;;;;;;12.21;100.00;102481.06;1982519;71;39597;-74
2022/05/01 01:26:00;;;;;;;62.47;58.57;;;;;;;12.31;100.00;102474.25;1845723;76;86606;-72
2022/05/01 01:31:46;;;;;;;59.33;55.53;;;;;;;12.64;100.00;102469.10;1872213;75;86107;-72
2022/05/01 01:37:34;;;;;;;56.27;52.70;;;;;;;12.67;100.00;102464.94;1806910;77;86695;-74
2022/05/01 01:43:21;;;;;;;55.23;51.83;;;;;;;12.63;100.00;102472.98;1949482;73;86490;-72
2022/05/01 01:49:10;;;;;;;52.40;48.97;;;;;;;12.59;100.00;102464.00;1945084;71;39589;-72
2022/05/01 01:54:55;;;;;;;51.77;48.47;;;;;;;12.60;100.00;102458.18;1853786;76;86605;-72
2022/05/01 02:00:37;;;;;;;50.47;47.27;;;;;;;12.55;100.00;102454.48;1883453;75;85932;-72
2022/05/01 02:06:23;;;;;;;46.93;43.93;;;;;;;12.43;100.00;102446.80;1924340;71;85711;-72
2022/05/01 02:12:12;;;;;;;44.70;41.80;;;;;;;12.64;100.00;102443.16;1981592;71;39637;-72
2022/05/01 02:17:56;;;;;;;43.60;40.80;;;;;;;12.41;100.00;102435.89;1971636;71;86784;-72
2022/05/01 02:23:41;;;;;;;40.30;37.60;;;;;;;12.33;100.00;102435.80;1882627;74;86021;-74
2022/05/01 02:29:25;;;;;;;41.37;38.67;;;;;;;12.16;100.00;102433.62;1916816;73;86221;-73
2022/05/01 02:35:11;;;;;;;42.40;39.73;;;;;;;12.12;100.00;102429.66;1925752;71;39689;-71
2022/05/01 02:40:55;;;;;;;42.03;39.30;;;;;;;12.19;100.00;102430.89;1841366;76;85492;-72
2022/05/01 02:46:39;;;;;;;40.50;37.93;;;;;;;12.11;100.00;102418.77;1869908;75;86404;-72
2022/05/01 02:52:24;;;;;;;41.63;38.93;;;;;;;12.11;100.00;102425.73;1910701;73;86328;-74
2022/05/01 02:58:07;;;;;;;46.13;43.17;;;;;;;11.99;100.00;102421.67;1984552;71;39689;-74
2022/05/01 03:03:52;;;;;;;48.07;44.73;;;;;;;11.95;100.00;102417.72;1883893;75;86590;-72
2022/05/01 03:09:36;;;;;;;53.77;50.43;;;;;;;11.81;100.00;102413.05;1899591;74;86272;-70
2022/05/01 03:15:24;;;;;;;53.50;50.00;;;;;;;11.89;100.00;102403.44;1906628;73;85448;-84
2022/05/01 03:27:11;;;;;;;53.03;49.43;;;;;;;11.86;100.00;102402.00;1987641;71;39627;-73
2022/05/01 03:32:49;;;;;;;56.87;53.37;;;;;;;11.80;100.00;102396.63;1801031;78;87230;-72
2022/05/01 03:35:19;;;;;;;55.60;52.07;;;;;;;11.66;100.00;102398.03;1746452;80;938868;-72
2022/05/01 03:37:50;;;;;;;57.83;54.10;;;;;;;11.64;100.00;102402.45;1737535;80;938881;-71
2022/05/01 03:40:21;;;;;;;56.77;53.27;;;;;;;11.67;100.00;102397.79;1736792;79;941071;-72
2022/05/01 03:42:51;;;;;;;56.67;52.97;;;;;;;11.68;100.00;102394.47;1723742;81;939113;-74
2022/05/01 03:45:21;;;;;;;58.07;54.33;;;;;;;11.66;100.00;102393.31;1740707;81;940788;-74
2022/05/01 03:47:51;;;;;;;57.77;54.00;;;;;;;11.64;100.00;102388.53;1741209;81;939001;-71
2022/05/01 03:50:22;;;;;;;59.03;55.17;;;;;;;11.64;100.00;102387.14;1723977;81;940783;-71
2022/05/01 03:52:52;;;;;;;56.03;52.27;;;;;;;11.73;100.00;102386.19;1712801;82;938933;-72
2022/05/01 03:58:38;;;;;;;58.37;54.37;;;;;;;11.69;100.00;102382.20;1887243;75;85051;-72
2022/05/01 04:04:22;;;;;;;57.83;54.10;;;;;;;11.52;100.00;102374.42;1918654;74;86271;-72
2022/05/01 04:10:09;;;;;;;56.67;53.07;;;;;;;11.65;100.00;102373.53;1977985;71;39612;-73
2022/05/01 04:15:53;;;;;;;57.00;53.20;;;;;;;11.73;100.00;102373.67;1879782;74;86517;-73
2022/05/01 04:21:38;;;;;;;59.13;55.20;;;;;;;11.60;100.00;102376.23;1875168;75;86273;-71
2022/05/01 04:27:24;;;;;;;58.83;54.93;;;;;;;11.49;100.00;102367.44;1915707;74;85305;-74
2022/05/01 04:33:10;;;;;;;59.73;55.83;;;;;;;11.44;100.00;102367.35;1942492;71;39582;-83
2022/05/01 04:38:53;;;;;;;60.73;56.60;;;;;;;11.49;100.00;102367.44;1837340;76;86073;-73
2022/05/01 04:44:38;;;;;;;59.67;55.90;;;;;;;11.52;100.00;102365.53;1876120;75;86307;-73
2022/05/01 04:50:22;;;;;;;60.53;56.63;;;;;;;11.52;100.00;102364.69;1926614;73;85521;-71
2022/05/01 05:02:08;;;;;;;61.40;57.50;;;;;;;11.50;100.00;102362.17;1986782;71;39412;-74
2022/05/01 05:07:52;;;;;;;57.93;54.43;;;;;;;11.47;100.00;102361.84;1882848;75;86450;-73
2022/05/01 05:13:36;;;;;;;60.27;56.33;;;;;;;11.55;100.00;102362.23;1882528;74;86555;-72
2022/05/01 05:19:21;;;;;;;57.77;53.90;;;;;;;11.60;100.00;102360.92;1910505;74;86299;-74
2022/05/01 05:25:08;;;;;;;58.33;54.60;;;;;;;11.67;100.00;102358.82;1893046;74;86388;-73
2022/05/01 05:30:52;;;;;;;56.87;53.37;;;;;;;11.60;100.00;102361.47;1902060;74;86641;-74
2022/05/01 05:36:37;;;;;;;55.80;52.13;;;;;;;11.74;100.00;102358.66;1876674;75;86355;-73
2022/05/01 05:42:21;;;;;;;54.53;51.03;;;;;;;11.90;100.00;102361.94;1942115;71;86634;-73
2022/05/01 05:48:08;;;;;;;56.27;52.57;;;;;;;11.96;100.00;102360.92;1882817;75;86328;-74
2022/05/01 05:53:58;;;;;;;52.67;49.33;;;;;;;12.07;100.00;102358.56;1832737;76;86432;-72
2022/05/01 05:59:42;;;;;;;55.07;51.47;;;;;;;12.05;100.00;102359.92;1874058;75;86528;-72
2022/05/01 06:05:27;;;;;;;51.57;48.07;;;;;;;12.21;100.00;102361.80;1907897;74;86585;-74
2022/05/01 06:11:10;;;;;;;50.03;46.83;;;;;;;12.25;100.00;102364.36;1945283;71;39486;-72
2022/05/01 06:17:05;;;;;;;51.10;47.70;;;;;;;12.24;100.00;102366.84;1830618;76;86536;-72
2022/05/01 06:22:52;;;;;;;52.63;49.03;;;;;;;12.14;100.00;102361.16;1796134;78;86061;-72
2022/05/01 06:28:39;;;;;;;52.80;49.33;;;;;;;12.25;100.00;102358.78;1867265;75;86020;-70
2022/05/01 06:34:24;;;;;;;48.90;45.63;;;;;;;12.41;100.00;102363.44;1928970;73;86058;-72
2022/05/01 06:40:10;;;;;;;50.43;46.83;;;;;;;12.39;100.00;102360.09;1947104;71;39498;-70
2022/05/01 06:45:57;;;;;;;48.87;45.67;;;;;;;12.57;100.00;102371.45;1838430;76;85065;-76
2022/05/01 06:51:41;;;;;;;48.80;45.47;;;;;;;12.70;100.00;102365.45;1868679;75;86329;-74
2022/05/01 06:57:26;;;;;;;50.43;47.23;;;;;;;12.75;100.00;102368.27;1889796;74;86050;-71
2022/05/01 07:03:09;;;;;;;46.37;43.00;;;;;;;12.87;100.00;102366.19;1981380;71;39488;-70
2022/05/01 07:08:53;;;;;;;45.93;42.87;;;;;;;12.87;100.00;102359.77;1826267;76;85660;-70
2022/05/01 07:14:40;;;;;;;44.67;41.77;;;;;;;13.20;100.00;102359.00;1876236;75;86094;-78
2022/05/01 07:20:24;;;;;;;39.73;37.07;;;;;;;13.23;100.00;102363.19;1910061;74;86644;-72
2022/05/01 07:26:08;;;;;;;41.00;38.27;;;;;;;13.30;100.00;102366.63;1987092;71;39727;-72
2022/05/01 07:31:52;;;;;;;38.87;36.37;;;;;;;13.46;100.00;102362.84;1882273;74;85909;-69
2022/05/01 07:37:36;;;;;;;37.53;35.13;;;;;;;13.59;100.00;102351.75;1894122;73;86506;-73
2022/05/01 07:43:26;;;;;;;34.70;32.40;;;;;;;13.81;100.00;102353.86;1910343;74;86334;-70
2022/05/01 07:49:11;;;;;;;35.30;32.80;;;;;;;13.81;100.00;102361.39;1939537;71;39564;-69
2022/05/01 07:54:55;;;;;;;28.57;26.87;;;;;;;13.98;100.00;102362.05;1843856;76;86324;-75
2022/05/01 08:00:39;;;;;;;26.90;25.20;;;;;;;14.12;100.00;102361.27;1889804;75;86076;-75
2022/05/01 08:06:23;;;;;;;28.37;26.50;;;;;;;14.17;100.00;102359.61;1926048;71;86153;-73
2022/05/01 08:12:10;;;;;;;26.97;25.20;;;;;;;14.28;100.00;102357.16;1945764;71;44762;-75
2022/05/01 08:21:04;;;;;;;23.10;21.80;;;;;;;14.46;100.00;102355.31;1848825;76;86453;-76
2022/05/01 08:23:44;;;;;;;22.63;21.13;;;;;;;14.56;100.00;102351.97;1884707;75;86273;-83
2022/05/01 08:29:28;;;;;;;20.30;19.00;;;;;;;14.93;100.00;102347.55;1799247;77;85264;-76
2022/05/01 08:35:12;;;;;;;18.77;17.57;;;;;;;14.79;100.00;102342.23;1949801;71;39531;-74
2022/05/01 08:40:57;;;;;;;17.53;16.33;;;;;;;14.76;100.00;102344.17;1826458;75;86539;-75
2022/05/01 08:47:03;;;;;;;16.83;15.53;;;;;;;15.09;100.00;102348.98;1872568;75;86674;-74
2022/05/01 08:52:50;;;;;;;16.57;15.27;;;;;;;15.00;100.00;102348.14;1795966;78;86003;-81
2022/05/01 08:58:36;;;;;;;15.53;14.60;;;;;;;15.18;100.00;102341.72;1805481;77;85554;-72
2022/05/01 09:04:23;;;;;;;16.13;14.93;;;;;;;15.19;100.00;102342.81;1913392;74;86438;-74
2022/05/01 09:10:12;;;;;;;18.10;17.00;;;;;;;15.04;100.00;102340.87;1981410;70;39496;-79
2022/05/01 09:19:13;;;;;;;17.47;16.30;;;;;;;15.22;100.00;102339.47;1949460;71;39496;-76
2022/05/01 09:25:17;;;;;;;17.83;16.47;;;;;;;15.44;100.00;102340.03;1901426;74;86141;-74
2022/05/01 09:31:01;;;;;;;17.93;16.70;;;;;;;15.81;100.00;102334.66;1815757;76;86303;-74
2022/05/01 09:36:46;;;;;;;16.13;15.03;;;;;;;16.09;100.00;102340.19;1884333;74;86673;-78
2022/05/01 09:42:36;;;;;;;16.80;15.60;;;;;;;15.99;100.00;102340.20;1868999;75;85444;-73
2022/05/01 09:48:23;;;;;;;18.77;17.30;;;;;;;15.67;100.00;102340.56;1918802;74;86199;-78
2022/05/01 09:54:08;;;;;;;18.43;17.13;;;;;;;16.27;100.00;102339.52;1982009;71;39485;-73
2022/05/01 10:00:00;;;;;;;19.37;18.07;;;;;;;15.96;100.00;102342.19;1829599;76;85468;-73
2022/05/01 10:05:46;;;;;;;21.33;19.57;;;;;;;15.99;100.00;102337.41;1873137;75;86353;-73
2022/05/01 10:11:32;;;;;;;21.33;19.30;;;;;;;16.14;100.00;102338.18;1866917;75;86308;-73
2022/05/01 10:17:17;;;;;;;19.87;18.43;;;;;;;15.84;100.00;102328.47;1985796;71;39537;-73
2022/05/01 10:23:03;;;;;;;18.40;17.07;;;;;;;15.91;100.00;102322.02;1830483;76;86300;-77
2022/05/01 10:29:15;;;;;;;17.67;16.47;;;;;;;15.80;100.00;102316.16;1808318;78;86549;-70
2022/05/01 10:36:03;;;;;;;21.10;19.40;;;;;;;15.92;100.00;102323.67;1822140;77;86251;-70
2022/05/01 10:41:54;;;;;;;21.30;19.47;;;;;;;15.72;100.00;102327.95;1849325;76;86303;-71
2022/05/01 10:47:44;;;;;;;19.93;18.53;;;;;;;15.63;100.00;102326.28;1871497;74;85964;-70
2022/05/01 10:53:33;;;;;;;21.03;19.13;;;;;;;15.52;100.00;102329.40;1872213;75;86602;-78
2022/05/01 10:59:42;;;;;;;21.17;19.53;;;;;;;15.54;100.00;102320.13;1916527;74;86035;-74
2022/05/01 11:05:50;;;;;;;19.57;18.17;;;;;;;15.54;100.00;102319.58;1906342;74;86541;-71
2022/05/01 11:11:36;;;;;;;22.33;20.67;;;;;;;15.30;100.00;102320.71;1862648;75;86315;-73
2022/05/01 11:17:50;;;;;;;23.07;21.27;;;;;;;15.08;100.00;102313.70;1914423;72;86342;-71
2022/05/01 11:23:44;;;;;;;23.70;21.90;;;;;;;14.87;100.00;102327.70;1867475;75;85438;-73
2022/05/01 11:29:30;;;;;;;22.43;20.63;;;;;;;14.92;100.00;102318.47;1858946;74;86166;-73
2022/05/01 11:35:23;;;;;;;21.00;19.40;;;;;;;14.80;100.00;102314.55;1912611;73;86440;-71
2022/05/01 11:41:43;;;;;;;18.27;17.07;;;;;;;14.77;100.00;102314.23;1919961;72;86454;-71
2022/05/01 11:47:37;;;;;;;16.50;15.50;;;;;;;14.73;100.00;102308.92;1868615;75;86650;-74
2022/05/01 11:53:25;;;;;;;18.57;17.23;;;;;;;14.91;100.00;102308.39;1911054;73;86297;-71
2022/05/01 12:05:11;;;;;;;21.30;19.70;;;;;;;14.92;100.00;102292.73;1981167;71;39686;-73
2022/05/01 12:10:58;;;;;;;23.53;22.10;;;;;;;14.86;100.00;102299.98;1845582;76;85876;-73
2022/05/01 12:16:45;;;;;;;30.23;28.23;;;;;;;14.79;100.00;102296.08;1871283;75;86506;-72
2022/05/01 12:22:37;;;;;;;25.53;23.80;;;;;;;14.35;100.00;102292.04;1808714;77;85497;-74
2022/05/01 12:28:18;;;;;;;30.63;28.73;;;;;;;14.54;100.00;102291.85;1949431;71;39609;-72
2022/05/01 12:34:06;;;;;;;43.47;40.67;;;;;;;14.26;100.00;102288.94;1874219;74;86470;-74
2022/05/01 12:39:59;;;;;;;43.30;40.60;;;;;;;14.45;100.00;102291.55;1807542;78;86504;-74
2022/05/01 12:45:46;;;;;;;47.23;44.23;;;;;;;14.53;100.00;102285.41;1888642;73;86408;-74
2022/05/01 12:51:41;;;;;;;40.30;37.70;;;;;;;14.78;100.00;102278.16;1850363;75;86491;-74
2022/05/01 12:57:36;;;;;;;45.90;43.17;;;;;;;14.81;100.00;102267.25;1917210;73;85437;-70
2022/05/01 13:06:33;;;;;;;36.53;34.13;;;;;;;14.67;100.00;102278.73;1945624;72;86249;-73
2022/05/01 13:12:35;;;;;;;34.80;32.53;;;;;;;14.71;100.00;102268.66;1911943;74;86560;-72
2022/05/01 13:18:21;;;;;;;37.63;35.23;;;;;;;15.15;100.00;102259.67;1904983;73;86085;-71
2022/05/01 13:24:09;;;;;;;36.80;34.60;;;;;;;14.83;100.00;102249.64;1804326;78;85372;-72
2022/05/01 13:29:55;;;;;;;29.47;27.40;;;;;;;15.15;100.00;102254.08;1814652;76;85393;-71
2022/05/01 13:35:39;;;;;;;28.30;26.50;;;;;;;15.33;100.00;102245.09;1887088;73;86170;-72
2022/05/01 13:47:26;;;;;;;25.43;23.93;;;;;;;15.13;100.00;102240.39;1919012;73;86752;-72
2022/05/01 13:53:13;;;;;;;26.23;24.67;;;;;;;15.02;100.00;102233.94;1976402;71;39445;-78
2022/05/01 13:58:56;;;;;;;26.17;24.63;;;;;;;14.83;100.00;102221.66;1840451;76;86743;-75
2022/05/01 14:04:40;;;;;;;25.67;24.00;;;;;;;14.88;100.00;102225.02;1911953;74;86359;-78
2022/05/01 14:10:26;;;;;;;25.73;24.07;;;;;;;14.79;100.00;102211.31;1914567;73;86550;-70
2022/05/01 14:16:10;;;;;;;25.57;24.17;;;;;;;14.81;100.00;102210.45;1985418;71;39566;-73
2022/05/01 14:22:00;;;;;;;24.50;23.10;;;;;;;14.72;100.00;102210.18;1820777;75;85554;-74
2022/05/01 14:27:44;;;;;;;25.33;23.77;;;;;;;14.96;100.00;102199.27;1888197;73;86313;-75
2022/05/01 14:33:33;;;;;;;27.13;25.37;;;;;;;14.86;100.00;102198.71;1871115;75;86052;-73
2022/05/01 14:39:18;;;;;;;28.83;26.87;;;;;;;14.90;100.00;102183.59;1985130;71;39480;-73
2022/05/01 14:45:07;;;;;;;27.13;25.37;;;;;;;14.76;100.00;102176.91;1848711;76;86266;-73
2022/05/01 14:50:57;;;;;;;25.00;23.40;;;;;;;15.30;100.00;102172.87;1820091;76;86340;-75
2022/05/01 14:56:43;;;;;;;25.93;24.33;;;;;;;14.66;100.00;102170.77;1910189;74;86402;-73
2022/05/01 15:08:36;;;;;;;31.90;29.63;;;;;;;14.30;100.00;102161.48;1808490;77;86442;-73
2022/05/01 15:14:21;;;;;;;35.13;32.83;;;;;;;14.13;100.00;102163.70;1929246;73;85876;-74
2022/05/01 15:20:20;;;;;;;36.20;33.90;;;;;;;14.07;100.00;102159.23;1981239;71;39584;-73
2022/05/01 15:26:12;;;;;;;39.00;36.60;;;;;;;14.06;100.00;102160.34;1980145;71;39494;-80
2022/05/01 15:31:59;;;;;;;51.57;48.23;;;;;;;13.99;100.00;102159.78;1844988;75;86125;-73
2022/05/01 15:37:45;;;;;;;62.63;58.53;;;;;;;13.59;100.00;102162.73;1879135;74;86130;-73
2022/05/01 15:43:33;;;;;;;67.40;63.20;;;;;;;13.36;100.00;102163.18;1804511;77;86258;-79
2022/05/01 15:55:34;;;;;;;67.23;62.77;;;;;;;13.51;100.00;102156.28;1809295;77;85524;-74
2022/05/01 16:01:17;;;;;;;62.57;58.77;;;;;;;13.47;100.00;102150.97;1982328;70;40338;-72
2022/05/01 16:07:08;;;;;;;66.00;61.90;;;;;;;13.55;100.00;102150.98;1808726;78;86287;-73
2022/05/01 16:09:44;;;;;;;60.87;57.27;;;;;;;13.54;100.00;102153.48;1756406;79;938700;-73
2022/05/01 16:12:20;;;;;;;60.03;56.43;;;;;;;13.40;100.00;102154.55;1756928;79;941012;-73
2022/05/01 16:14:59;;;;;;;51.70;48.70;;;;;;;13.38;100.00;102158.73;1768583;79;938982;-74
2022/05/01 16:20:56;;;;;;;56.43;53.13;;;;;;;13.44;100.00;102150.09;1877554;74;86032;-80
2022/05/01 16:26:49;;;;;;;60.30;56.47;;;;;;;13.54;100.00;102146.52;1808157;78;86590;-74
2022/05/01 16:32:39;;;;;;;57.77;54.27;;;;;;;13.56;100.00;102137.32;1808766;77;85605;-81
2022/05/01 16:38:26;;;;;;;58.90;55.30;;;;;;;13.63;100.00;102143.48;1913297;73;86639;-74
2022/05/01 16:47:19;;;;;;;55.33;52.03;;;;;;;13.58;100.00;102137.31;1974390;69;39442;-69
2022/05/01 16:49:51;;;;;;;62.57;58.60;;;;;;;13.79;100.00;102140.16;1925207;73;936834;-69
2022/05/01 16:52:25;;;;;;;57.87;54.07;;;;;;;13.69;100.00;102129.83;1926880;72;940836;-73
2022/05/01 16:58:13;;;;;;;74.90;69.40;;;;;;;13.70;100.00;102131.48;1957735;71;39586;-75
2022/05/01 17:04:00;;;;;;;70.03;65.23;;;;;;;13.57;100.00;102134.79;1853119;73;112412;-69
2022/05/01 17:16:30;;;;;;;62.27;58.67;;;;;;;13.49;100.00;102131.98;1910049;73;85788;-70
2022/05/01 17:19:06;;;;;;;62.33;58.57;;;;;;;13.49;100.00;102133.92;1835437;73;939633;-70
2022/05/01 17:21:38;;;;;;;62.30;58.60;;;;;;;13.54;100.00;102133.95;1835429;76;941083;-68
2022/05/01 17:24:13;;;;;;;56.83;53.53;;;;;;;13.39;100.00;102134.72;1848741;75;940964;-68
2022/05/01 17:30:05;;;;;;;55.23;51.93;;;;;;;13.51;100.00;102126.98;1821507;76;86145;-70
2022/05/01 17:35:58;;;;;;;51.77;48.80;;;;;;;13.37;100.00;102128.58;1841594;76;85534;-68
2022/05/01 17:41:45;;;;;;;56.57;53.17;;;;;;;13.22;100.00;102131.32;1890038;74;86625;-67
2022/05/01 17:47:32;;;;;;;61.27;57.67;;;;;;;13.13;100.00;102134.34;1854803;76;86856;-68
2022/05/01 17:53:20;;;;;;;58.53;54.93;;;;;;;13.14;100.00;102136.00;1973342;70;39449;-67
2022/05/01 17:59:06;;;;;;;59.50;56.00;;;;;;;13.08;100.00;102139.86;1829442;76;86695;-70
2022/05/01 18:11:15;;;;;;;64.40;60.30;;;;;;;12.87;100.00;102144.48;1974726;71;39483;-69
2022/05/01 18:13:53;;;;;;;65.27;61.37;;;;;;;12.63;100.00;102155.72;1912206;73;936957;-70
2022/05/01 18:16:28;;;;;;;67.00;62.90;;;;;;;12.81;100.00;102153.06;1912239;73;939987;-69
2022/05/01 18:22:20;;;;;;;65.87;61.87;;;;;;;12.86;100.00;102147.52;1984813;71;39659;-67
2022/05/01 18:28:11;;;;;;;68.63;64.13;;;;;;;12.93;100.00;102145.33;1938596;71;40331;-68
2022/05/01 18:30:44;;;;;;;66.43;62.23;;;;;;;12.89;100.00;102156.19;1842112;76;936940;-68
2022/05/01 18:33:30;;;;;;;68.20;63.77;;;;;;;12.81;100.00;102157.25;1814578;76;940959;-67
2022/05/01 18:39:21;;;;;;;68.53;63.93;;;;;;;12.61;100.00;102159.34;1974896;71;50542;-68
2022/05/01 18:45:11;;;;;;;68.60;63.60;;;;;;;12.45;100.00;102162.54;1986652;71;39476;-67
2022/05/01 18:50:59;;;;;;;66.30;61.60;;;;;;;12.39;100.00;102162.23;1841745;76;85534;-69
2022/05/01 19:00:00;;;;;;;65.73;61.10;;;;;;;12.37;100.00;102172.78;1981705;71;85990;-67
2022/05/01 19:05:57;;;;;;;64.93;60.23;;;;;;;12.26;100.00;102179.37;1807587;78;86578;-67
2022/05/01 19:12:06;;;;;;;62.47;57.57;;;;;;;12.23;100.00;102179.92;1884293;75;85966;-66
2022/05/01 19:14:44;;;;;;;62.77;57.97;;;;;;;12.15;100.00;102188.75;1829081;76;938689;-69
2022/05/01 19:17:20;;;;;;;63.80;59.10;;;;;;;12.04;100.00;102192.52;1814462;77;940978;-66
2022/05/01 19:26:40;;;;;;;63.47;58.47;;;;;;;12.02;100.00;102190.02;1884721;75;86500;-66
2022/05/01 19:32:31;;;;;;;64.17;59.37;;;;;;;11.99;100.00;102189.13;1924954;71;86229;-66
2022/05/01 19:35:05;;;;;;;66.10;61.00;;;;;;;11.91;100.00;102195.16;1848690;75;946454;-66
2022/05/01 19:37:39;;;;;;;65.93;61.00;;;;;;;11.97;100.00;102203.03;1862230;75;940845;-66
2022/05/01 19:53:10;;;;;;;66.03;60.93;;;;;;;11.80;100.00;102205.91;1821938;76;86231;-65
2022/05/01 19:58:56;;;;;;;62.17;57.17;;;;;;;11.90;100.00;102207.41;1886849;74;86643;-67
2022/05/01 20:04:32;;;;;;;63.10;58.03;;;;;;;11.85;100.00;102213.75;1871424;72;86655;-66
2022/05/01 20:07:05;;;;;;;62.77;57.73;;;;;;;11.83;100.00;102214.58;1796039;76;938683;-66
2022/05/01 20:09:39;;;;;;;62.93;57.83;;;;;;;11.85;100.00;102228.25;1827899;77;940736;-65
2022/05/01 20:12:12;;;;;;;65.17;59.65;;;;;;;11.89;100.00;102222.99;1812372;75;940823;-65
2022/05/01 20:14:43;;;;;;;63.87;58.37;;;;;;;11.82;100.00;102217.61;1838337;76;938815;-66
2022/05/01 20:17:15;;;;;;;67.00;61.50;;;;;;;11.77;100.00;102218.39;1826246;75;940745;-67
2022/05/01 20:23:09;;;;;;;69.10;63.50;;;;;;;11.93;100.00;102215.80;1839830;76;86006;-66
2022/05/01 20:29:17;;;;;;;68.83;63.13;;;;;;;11.91;100.00;102205.46;1833253;76;86730;-65
2022/05/01 20:35:10;;;;;;;72.43;66.23;;;;;;;11.89;100.00;102210.47;1830811;76;86351;-66
2022/05/01 20:41:19;;;;;;;70.77;64.27;;;;;;;11.78;100.00;102213.66;1973493;71;39524;-66
2022/05/01 20:43:54;;;;;;;72.93;66.63;;;;;;;11.77;100.00;102217.55;1912491;73;936763;-65
2022/05/01 20:49:56;;;;;;;77.20;70.30;;;;;;;11.78;100.00;102207.55;1880933;75;86505;-65
2022/05/01 20:55:42;;;;;;;79.93;72.83;;;;;;;11.82;100.00;102208.71;1890758;74;86294;-66
2022/05/01 21:01:26;;;;;;;76.83;69.83;;;;;;;11.96;100.00;102207.76;1903806;73;86314;-66
2022/05/01 21:07:13;;;;;;;77.53;70.47;;;;;;;11.86;100.00;102209.87;1983518;71;39711;-67
2022/05/01 21:13:00;;;;;;;74.73;67.77;;;;;;;11.89;100.00;102208.53;1825827;76;86667;-66
2022/05/01 21:18:49;;;;;;;119.63;107.73;;;;;;;11.67;100.00;102203.48;1800621;78;86353;-66
2022/05/01 21:24:34;;;;;;;77.10;70.43;;;;;;;11.55;100.00;102195.25;1866373;75;86255;-65
2022/05/01 21:36:22;;;;;;;77.00;70.30;;;;;;;11.36;100.00;102202.25;1931096;73;86147;-67
2022/05/01 21:42:07;;;;;;;74.17;67.50;;;;;;;11.53;100.00;102195.23;1802195;78;86525;-68
2022/05/01 21:47:51;;;;;;;75.27;68.67;;;;;;;11.50;100.00;102188.80;1879582;74;86266;-67
2022/05/01 21:53:37;;;;;;;72.87;66.37;;;;;;;11.43;100.00;102191.76;1802763;77;86007;-67
2022/05/01 21:59:20;;;;;;;72.83;66.37;;;;;;;11.46;100.00;102187.09;1911339;73;86386;-67
2022/05/01 22:05:06;;;;;;;69.77;63.67;;;;;;;11.52;100.00;102187.43;1802286;78;86056;-67
2022/05/01 22:10:52;;;;;;;68.57;62.70;;;;;;;11.45;100.00;102179.84;1799711;78;86481;-66
2022/05/01 22:16:36;;;;;;;68.03;62.10;;;;;;;11.34;100.00;102187.73;1852477;76;86926;-67
2022/05/01 22:22:22;;;;;;;69.77;63.87;;;;;;;11.34;100.00;102186.34;1930004;73;86164;-67
2022/05/01 22:28:08;;;;;;;69.33;63.70;;;;;;;11.30;100.00;102184.64;1975148;71;39678;-67
2022/05/01 22:33:52;;;;;;;73.87;67.73;;;;;;;11.38;100.00;102170.85;1896805;74;86436;-66
2022/05/01 22:39:38;;;;;;;75.07;68.87;;;;;;;11.31;100.00;102172.96;1803954;78;86410;-67
2022/05/01 22:45:27;;;;;;;75.43;69.30;;;;;;;11.16;100.00;102171.38;1912926;72;86316;-66
2022/05/01 22:51:11;;;;;;;76.67;70.27;;;;;;;11.31;100.00;102163.23;1955129;71;39599;-67
2022/05/01 22:56:56;;;;;;;72.40;66.40;;;;;;;11.24;100.00;102166.21;1792641;77;85730;-67
2022/05/01 23:02:40;;;;;;;77.70;71.40;;;;;;;11.29;100.00;102165.44;1896827;73;86615;-67
2022/05/01 23:08:25;;;;;;;77.40;71.23;;;;;;;11.26;100.00;102156.20;1924463;73;86419;-67
2022/05/01 23:14:11;;;;;;;72.60;66.60;;;;;;;11.12;100.00;102161.87;1931827;71;39829;-66
2022/05/01 23:19:56;;;;;;;73.17;66.80;;;;;;;11.20;100.00;102165.59;1830803;76;86687;-66
2022/05/01 23:25:41;;;;;;;78.13;71.90;;;;;;;11.25;100.00;102162.89;1820963;76;86723;-67
2022/05/01 23:31:27;;;;;;;76.73;70.40;;;;;;;11.31;100.00;102157.12;1923907;72;86388;-67
2022/05/01 23:37:11;;;;;;;75.87;69.53;;;;;;;11.42;100.00;102158.11;1985556;71;39834;-67
2022/05/01 23:42:54;;;;;;;76.77;70.67;;;;;;;11.32;100.00;102153.24;1827221;76;85487;-67
2022/05/01 23:48:42;;;;;;;74.43;68.27;;;;;;;11.21;100.00;102154.77;1872821;75;86796;-67
2022/05/01 23:54:30;;;;;;;77.17;70.97;;;;;;;11.21;100.00;102150.02;1909960;74;86394;-67
